sensor_id;sensor_type;location;lat;lon;timestamp;pressure;altitude;pressure_sealevel;temperature
15144;BMP180;7672;50.834;6.286;2023-07-13T00:02:09;99669.91;;;20.51
15144;BMP180;7672;50.834;6.286;2023-07-13T00:04:36;99675.97;;;20.48
15144;BMP180;7672;50.834;6.286;2023-07-13T00:07:03;99668.38;;;20.46
15144;BMP180;7672;50.834;6.286;2023-07-13T00:09:30;99678.69;;;20.44
15144;BMP180;7672;50.834;6.286;2023-07-13T00:11:58;99674.63;;;20.39
15144;BMP180;7672;50.834;6.286;2023-07-13T00:14:27;99692.59;;;20.39
15144;BMP180;7672;50.834;6.286;2023-07-13T00:16:55;99679.03;;;20.35
15144;BMP180;7672;50.834;6.286;2023-07-13T00:19:22;99690.22;;;20.33
15144;BMP180;7672;50.834;6.286;2023-07-13T00:21:49;99680.09;;;20.30
15144;BMP180;7672;50.834;6.286;2023-07-13T00:24:18;99683.66;;;20.26
15144;BMP180;7672;50.834;6.286;2023-07-13T00:26:51;99684.66;;;20.22
15144;BMP180;7672;50.834;6.286;2023-07-13T00:29:18;99690.78;;;20.18
15144;BMP180;7672;50.834;6.286;2023-07-13T00:31:48;99692.56;;;20.16
15144;BMP180;7672;50.834;6.286;2023-07-13T00:34:16;99694.44;;;20.11
15144;BMP180;7672;50.834;6.286;2023-07-13T00:36:43;99689.38;;;20.09
15144;BMP180;7672;50.834;6.286;2023-07-13T00:39:10;99691.13;;;20.07
15144;BMP180;7672;50.834;6.286;2023-07-13T00:41:37;99683.50;;;20.06
15144;BMP180;7672;50.834;6.286;2023-07-13T00:44:04;99678.41;;;20.04
15144;BMP180;7672;50.834;6.286;2023-07-13T00:46:33;99683.59;;;20.03
15144;BMP180;7672;50.834;6.286;2023-07-13T00:49:08;99682.06;;;19.97
15144;BMP180;7672;50.834;6.286;2023-07-13T00:52:02;99679.63;;;19.94
15144;BMP180;7672;50.834;6.286;2023-07-13T00:54:37;99691.69;;;19.91
15144;BMP180;7672;50.834;6.286;2023-07-13T00:57:09;99690.84;;;19.90
15144;BMP180;7672;50.834;6.286;2023-07-13T00:59:43;99690.91;;;19.89
15144;BMP180;7672;50.834;6.286;2023-07-13T01:02:12;99682.47;;;19.85
15144;BMP180;7672;50.834;6.286;2023-07-13T01:04:40;99678.22;;;19.84
15144;BMP180;7672;50.834;6.286;2023-07-13T01:07:12;99684.22;;;19.83
15144;BMP180;7672;50.834;6.286;2023-07-13T01:09:39;99679.16;;;19.82
15144;BMP180;7672;50.834;6.286;2023-07-13T01:12:07;99678.38;;;19.80
15144;BMP180;7672;50.834;6.286;2023-07-13T01:14:34;99680.16;;;19.78
15144;BMP180;7672;50.834;6.286;2023-07-13T01:17:01;99674.19;;;19.78
15144;BMP180;7672;50.834;6.286;2023-07-13T01:19:49;99668.25;;;19.76
15144;BMP180;7672;50.834;6.286;2023-07-13T01:22:18;99679.41;;;19.75
15144;BMP180;7672;50.834;6.286;2023-07-13T01:24:47;99666.63;;;19.73
15144;BMP180;7672;50.834;6.286;2023-07-13T01:27:20;99664.06;;;19.73
15144;BMP180;7672;50.834;6.286;2023-07-13T01:29:48;99666.63;;;19.73
15144;BMP180;7672;50.834;6.286;2023-07-13T01:32:24;99664.13;;;19.72
15144;BMP180;7672;50.834;6.286;2023-07-13T01:34:54;99667.56;;;19.71
15144;BMP180;7672;50.834;6.286;2023-07-13T01:37:24;99664.25;;;19.69
15144;BMP180;7672;50.834;6.286;2023-07-13T01:39:52;99666.81;;;19.69
15144;BMP180;7672;50.834;6.286;2023-07-13T01:42:19;99663.44;;;19.67
15144;BMP180;7672;50.834;6.286;2023-07-13T01:44:47;99666.13;;;19.64
15144;BMP180;7672;50.834;6.286;2023-07-13T01:47:14;99656.78;;;19.61
15144;BMP180;7672;50.834;6.286;2023-07-13T01:49:42;99667.06;;;19.61
15144;BMP180;7672;50.834;6.286;2023-07-13T01:52:09;99667.13;;;19.58
15144;BMP180;7672;50.834;6.286;2023-07-13T01:54:36;99666.31;;;19.58
15144;BMP180;7672;50.834;6.286;2023-07-13T01:57:03;99668.06;;;19.56
15144;BMP180;7672;50.834;6.286;2023-07-13T01:59:30;99665.56;;;19.54
15144;BMP180;7672;50.834;6.286;2023-07-13T02:01:59;99670.75;;;19.53
15144;BMP180;7672;50.834;6.286;2023-07-13T02:04:27;99669.97;;;19.51
15144;BMP180;7672;50.834;6.286;2023-07-13T02:06:54;99675.13;;;19.49
15144;BMP180;7672;50.834;6.286;2023-07-13T02:09:22;99666.72;;;19.46
15144;BMP180;7672;50.834;6.286;2023-07-13T02:11:49;99671.03;;;19.44
15144;BMP180;7672;50.834;6.286;2023-07-13T02:14:16;99674.47;;;19.43
15144;BMP180;7672;50.834;6.286;2023-07-13T02:16:43;99683.91;;;19.42
15144;BMP180;7672;50.834;6.286;2023-07-13T02:19:11;99679.78;;;19.38
15144;BMP180;7672;50.834;6.286;2023-07-13T02:21:38;99680.69;;;19.36
15144;BMP180;7672;50.834;6.286;2023-07-13T02:24:05;99679.84;;;19.35
15144;BMP180;7672;50.834;6.286;2023-07-13T02:26:32;99680.78;;;19.33
15144;BMP180;7672;50.834;6.286;2023-07-13T02:28:59;99679.16;;;19.30
15144;BMP180;7672;50.834;6.286;2023-07-13T02:31:26;99681.72;;;19.30
15144;BMP180;7672;50.834;6.286;2023-07-13T02:33:53;99688.63;;;19.28
15144;BMP180;7672;50.834;6.286;2023-07-13T02:36:20;99689.56;;;19.26
15144;BMP180;7672;50.834;6.286;2023-07-13T02:38:50;99684.47;;;19.24
15144;BMP180;7672;50.834;6.286;2023-07-13T02:41:17;99684.56;;;19.22
15144;BMP180;7672;50.834;6.286;2023-07-13T02:43:44;99695.72;;;19.21
15144;BMP180;7672;50.834;6.286;2023-07-13T02:46:11;99694.09;;;19.18
15144;BMP180;7672;50.834;6.286;2023-07-13T02:48:40;99687.31;;;19.16
15144;BMP180;7672;50.834;6.286;2023-07-13T02:51:07;99687.31;;;19.16
15144;BMP180;7672;50.834;6.286;2023-07-13T02:53:35;99688.22;;;19.15
15144;BMP180;7672;50.834;6.286;2023-07-13T02:56:04;99685.66;;;19.15
15144;BMP180;7672;50.834;6.286;2023-07-13T02:58:31;99679.78;;;19.11
15144;BMP180;7672;50.834;6.286;2023-07-13T03:00:59;99684.94;;;19.10
15144;BMP180;7672;50.834;6.286;2023-07-13T03:03:27;99690.13;;;19.08
15144;BMP180;7672;50.834;6.286;2023-07-13T03:06:02;99685.03;;;19.07
15144;BMP180;7672;50.834;6.286;2023-07-13T03:08:38;99688.44;;;19.06
15144;BMP180;7672;50.834;6.286;2023-07-13T03:11:11;99686.75;;;19.05
15144;BMP180;7672;50.834;6.286;2023-07-13T03:13:42;99691.09;;;19.03
15144;BMP180;7672;50.834;6.286;2023-07-13T03:16:11;99697.94;;;19.02
15144;BMP180;7672;50.834;6.286;2023-07-13T03:18:40;99696.31;;;19.00
15144;BMP180;7672;50.834;6.286;2023-07-13T03:21:09;99703.22;;;18.98
15144;BMP180;7672;50.834;6.286;2023-07-13T03:23:37;99699.03;;;18.94
15144;BMP180;7672;50.834;6.286;2023-07-13T03:26:15;99696.59;;;18.91
15144;BMP180;7672;50.834;6.286;2023-07-13T03:28:43;99698.34;;;18.89
15144;BMP180;7672;50.834;6.286;2023-07-13T03:31:19;99700.13;;;18.87
15144;BMP180;7672;50.834;6.286;2023-07-13T03:33:48;99698.47;;;18.84
15144;BMP180;7672;50.834;6.286;2023-07-13T03:36:29;99707.09;;;18.82
15144;BMP180;7672;50.834;6.286;2023-07-13T03:39:02;99705.41;;;18.81
15144;BMP180;7672;50.834;6.286;2023-07-13T03:41:37;99707.97;;;18.81
15144;BMP180;7672;50.834;6.286;2023-07-13T03:44:05;99704.59;;;18.80
15144;BMP180;7672;50.834;6.286;2023-07-13T03:46:32;99713.94;;;18.81
15144;BMP180;7672;50.834;6.286;2023-07-13T03:49:01;99712.22;;;18.82
15144;BMP180;7672;50.834;6.286;2023-07-13T03:51:28;99716.41;;;18.84
15144;BMP180;7672;50.834;6.286;2023-07-13T03:53:55;99715.50;;;18.87
15144;BMP180;7672;50.834;6.286;2023-07-13T03:56:22;99722.28;;;18.88
15144;BMP180;7672;50.834;6.286;2023-07-13T03:58:50;99716.19;;;18.92
15144;BMP180;7672;50.834;6.286;2023-07-13T04:01:21;99722.84;;;18.97
15144;BMP180;7672;50.834;6.286;2023-07-13T04:03:49;99720.16;;;19.02
15144;BMP180;7672;50.834;6.286;2023-07-13T04:06:25;99718.28;;;19.08
15144;BMP180;7672;50.834;6.286;2023-07-13T04:08:56;99726.63;;;19.15
15144;BMP180;7672;50.834;6.286;2023-07-13T04:11:27;99731.53;;;19.22
15144;BMP180;7672;50.834;6.286;2023-07-13T04:13:55;99727.84;;;19.30
15144;BMP180;7672;50.834;6.286;2023-07-13T04:16:22;99726.66;;;19.40
15144;BMP180;7672;50.834;6.286;2023-07-13T04:18:49;99726.38;;;19.51
15144;BMP180;7672;50.834;6.286;2023-07-13T04:21:17;99737.06;;;19.63
15144;BMP180;7672;50.834;6.286;2023-07-13T04:23:44;99735.78;;;19.76
15144;BMP180;7672;50.834;6.286;2023-07-13T04:26:11;99744.75;;;19.89
15144;BMP180;7672;50.834;6.286;2023-07-13T04:28:38;99743.44;;;20.03
15144;BMP180;7672;50.834;6.286;2023-07-13T04:31:05;99747.25;;;20.18
15144;BMP180;7672;50.834;6.286;2023-07-13T04:33:32;99742.44;;;20.33
15144;BMP180;7672;50.834;6.286;2023-07-13T04:36:00;99749.56;;;20.48
15144;BMP180;7672;50.834;6.286;2023-07-13T04:38:31;99743.09;;;20.62
15144;BMP180;7672;50.834;6.286;2023-07-13T04:41:02;99741.66;;;20.78
15144;BMP180;7672;50.834;6.286;2023-07-13T04:43:31;99749.63;;;20.95
15144;BMP180;7672;50.834;6.286;2023-07-13T04:46:06;99743.91;;;21.10
15144;BMP180;7672;50.834;6.286;2023-07-13T04:48:34;99752.63;;;21.27
15144;BMP180;7672;50.834;6.286;2023-07-13T04:51:02;99746.91;;;21.42
15144;BMP180;7672;50.834;6.286;2023-07-13T04:53:30;99747.91;;;21.61
15144;BMP180;7672;50.834;6.286;2023-07-13T04:55:57;99741.22;;;21.78
15144;BMP180;7672;50.834;6.286;2023-07-13T04:58:25;99749.00;;;21.97
15144;BMP180;7672;50.834;6.286;2023-07-13T05:00:53;99747.34;;;22.16
15144;BMP180;7672;50.834;6.286;2023-07-13T05:03:20;99745.63;;;22.36
15144;BMP180;7672;50.834;6.286;2023-07-13T05:06:05;99747.38;;;22.55
15144;BMP180;7672;50.834;6.286;2023-07-13T05:08:32;99742.31;;;22.72
15144;BMP180;7672;50.834;6.286;2023-07-13T05:11:02;99756.88;;;22.92
15144;BMP180;7672;50.834;6.286;2023-07-13T05:13:30;99738.97;;;23.08
15144;BMP180;7672;50.834;6.286;2023-07-13T05:16:06;99746.75;;;23.25
15144;BMP180;7672;50.834;6.286;2023-07-13T05:18:35;99749.38;;;23.42
15144;BMP180;7672;50.834;6.286;2023-07-13T05:21:09;99751.88;;;23.62
15144;BMP180;7672;50.834;6.286;2023-07-13T05:23:38;99755.19;;;23.82
15144;BMP180;7672;50.834;6.286;2023-07-13T05:26:05;99761.13;;;24.01
15144;BMP180;7672;50.834;6.286;2023-07-13T05:28:36;99765.38;;;24.19
15144;BMP180;7672;50.834;6.286;2023-07-13T05:31:06;99757.72;;;24.34
15144;BMP180;7672;50.834;6.286;2023-07-13T05:33:34;99762.22;;;24.48
15144;BMP180;7672;50.834;6.286;2023-07-13T05:36:01;99777.16;;;24.58
15144;BMP180;7672;50.834;6.286;2023-07-13T05:38:29;99779.44;;;24.64
15144;BMP180;7672;50.834;6.286;2023-07-13T05:40:57;99775.97;;;24.65
15144;BMP180;7672;50.834;6.286;2023-07-13T05:43:24;99774.88;;;24.69
15144;BMP180;7672;50.834;6.286;2023-07-13T05:45:57;99781.78;;;24.69
15144;BMP180;7672;50.834;6.286;2023-07-13T05:48:24;99783.53;;;24.68
15144;BMP180;7672;50.834;6.286;2023-07-13T05:50:51;99790.53;;;24.66
15144;BMP180;7672;50.834;6.286;2023-07-13T05:53:19;99781.13;;;24.65
15144;BMP180;7672;50.834;6.286;2023-07-13T05:55:47;99776.88;;;24.64
15144;BMP180;7672;50.834;6.286;2023-07-13T05:58:17;99788.28;;;24.60
15144;BMP180;7672;50.834;6.286;2023-07-13T06:00:46;99789.19;;;24.59
15144;BMP180;7672;50.834;6.286;2023-07-13T06:03:14;99789.94;;;24.61
15144;BMP180;7672;50.834;6.286;2023-07-13T06:05:42;99798.38;;;24.65
15144;BMP180;7672;50.834;6.286;2023-07-13T06:08:09;99797.06;;;24.73
15144;BMP180;7672;50.834;6.286;2023-07-13T06:10:36;99800.84;;;24.83
15144;BMP180;7672;50.834;6.286;2023-07-13T06:13:03;99800.50;;;24.89
15144;BMP180;7672;50.834;6.286;2023-07-13T06:15:31;99800.88;;;24.98
15144;BMP180;7672;50.834;6.286;2023-07-13T06:17:58;99804.63;;;25.10
15144;BMP180;7672;50.834;6.286;2023-07-13T06:20:25;99801.44;;;25.20
15144;BMP180;7672;50.834;6.286;2023-07-13T06:22:52;99804.31;;;25.31
15144;BMP180;7672;50.834;6.286;2023-07-13T06:25:20;99794.13;;;25.44
15144;BMP180;7672;50.834;6.286;2023-07-13T06:27:47;99810.97;;;25.51
15144;BMP180;7672;50.834;6.286;2023-07-13T06:30:14;99820.09;;;25.57
15144;BMP180;7672;50.834;6.286;2023-07-13T06:32:41;99814.66;;;25.62
15144;BMP180;7672;50.834;6.286;2023-07-13T06:35:08;99816.84;;;25.69
15144;BMP180;7672;50.834;6.286;2023-07-13T06:37:39;99823.22;;;25.79
15144;BMP180;7672;50.834;6.286;2023-07-13T06:40:07;99826.19;;;25.87
15144;BMP180;7672;50.834;6.286;2023-07-13T06:42:34;99821.03;;;25.87
15144;BMP180;7672;50.834;6.286;2023-07-13T06:45:02;99823.69;;;25.86
15144;BMP180;7672;50.834;6.286;2023-07-13T06:47:29;99829.78;;;25.85
15144;BMP180;7672;50.834;6.286;2023-07-13T06:50:00;99823.78;;;25.84
15144;BMP180;7672;50.834;6.286;2023-07-13T06:52:28;99833.38;;;25.82
15144;BMP180;7672;50.834;6.286;2023-07-13T06:54:55;99830.97;;;25.79
15144;BMP180;7672;50.834;6.286;2023-07-13T06:57:22;99835.38;;;25.77
15144;BMP180;7672;50.834;6.286;2023-07-13T06:59:49;99834.81;;;25.72
15144;BMP180;7672;50.834;6.286;2023-07-13T07:02:16;99839.94;;;25.74
15144;BMP180;7672;50.834;6.286;2023-07-13T07:04:43;99839.06;;;25.73
15144;BMP180;7672;50.834;6.286;2023-07-13T07:07:10;99841.50;;;25.76
15144;BMP180;7672;50.834;6.286;2023-07-13T07:09:37;99843.00;;;25.80
15144;BMP180;7672;50.834;6.286;2023-07-13T07:12:05;99843.59;;;25.85
15144;BMP180;7672;50.834;6.286;2023-07-13T07:14:32;99845.22;;;25.86
15144;BMP180;7672;50.834;6.286;2023-07-13T07:17:01;99848.78;;;25.85
15144;BMP180;7672;50.834;6.286;2023-07-13T07:19:30;99845.09;;;25.89
15144;BMP180;7672;50.834;6.286;2023-07-13T07:21:57;99856.03;;;25.94
15144;BMP180;7672;50.834;6.286;2023-07-13T07:24:24;99848.75;;;26.01
15144;BMP180;7672;50.834;6.286;2023-07-13T07:26:51;99847.97;;;26.14
15144;BMP180;7672;50.834;6.286;2023-07-13T07:29:22;99848.00;;;26.28
15144;BMP180;7672;50.834;6.286;2023-07-13T07:31:52;99848.84;;;26.44
15144;BMP180;7672;50.834;6.286;2023-07-13T07:34:22;99848.59;;;26.62
15144;BMP180;7672;50.834;6.286;2023-07-13T07:36:49;99857.06;;;26.80
15144;BMP180;7672;50.834;6.286;2023-07-13T07:39:19;99853.34;;;26.99
15144;BMP180;7672;50.834;6.286;2023-07-13T07:41:46;99855.00;;;27.14
15144;BMP180;7672;50.834;6.286;2023-07-13T07:44:16;99854.38;;;27.24
15144;BMP180;7672;50.834;6.286;2023-07-13T07:46:43;99844.91;;;27.37
15144;BMP180;7672;50.834;6.286;2023-07-13T07:49:12;99851.53;;;27.55
15144;BMP180;7672;50.834;6.286;2023-07-13T07:51:39;99851.63;;;27.81
15144;BMP180;7672;50.834;6.286;2023-07-13T07:54:07;99855.97;;;28.07
15144;BMP180;7672;50.834;6.286;2023-07-13T07:56:34;99855.06;;;28.34
15144;BMP180;7672;50.834;6.286;2023-07-13T07:59:04;99862.88;;;28.59
15144;BMP180;7672;50.834;6.286;2023-07-13T08:01:34;99860.75;;;28.78
15144;BMP180;7672;50.834;6.286;2023-07-13T08:04:04;99852.75;;;28.93
15144;BMP180;7672;50.834;6.286;2023-07-13T08:06:34;99851.94;;;29.05
15144;BMP180;7672;50.834;6.286;2023-07-13T08:09:04;99857.72;;;29.21
15144;BMP180;7672;50.834;6.286;2023-07-13T08:11:31;99846.19;;;29.38
15144;BMP180;7672;50.834;6.286;2023-07-13T08:14:01;99859.38;;;29.59
15144;BMP180;7672;50.834;6.286;2023-07-13T08:16:28;99856.53;;;29.75
15144;BMP180;7672;50.834;6.286;2023-07-13T08:18:56;99860.56;;;29.91
15144;BMP180;7672;50.834;6.286;2023-07-13T08:21:23;99848.53;;;30.01
15144;BMP180;7672;50.834;6.286;2023-07-13T08:23:50;99842.41;;;30.13
15144;BMP180;7672;50.834;6.286;2023-07-13T08:26:17;99847.44;;;30.27
15144;BMP180;7672;50.834;6.286;2023-07-13T08:28:44;99850.53;;;30.55
15144;BMP180;7672;50.834;6.286;2023-07-13T08:31:11;99847.03;;;30.89
15144;BMP180;7672;50.834;6.286;2023-07-13T08:33:39;99847.91;;;31.00
15144;BMP180;7672;50.834;6.286;2023-07-13T08:36:07;99848.41;;;31.05
15144;BMP180;7672;50.834;6.286;2023-07-13T08:38:34;99852.91;;;31.14
15144;BMP180;7672;50.834;6.286;2023-07-13T08:41:13;99853.97;;;31.12
15144;BMP180;7672;50.834;6.286;2023-07-13T08:43:42;99849.84;;;30.98
15144;BMP180;7672;50.834;6.286;2023-07-13T08:46:24;99860.69;;;30.92
15144;BMP180;7672;50.834;6.286;2023-07-13T08:48:59;99861.81;;;31.01
15144;BMP180;7672;50.834;6.286;2023-07-13T08:54:41;99837.47;;;31.55
15144;BMP180;7672;50.834;6.286;2023-07-13T08:57:19;99842.59;;;31.98
15144;BMP180;7672;50.834;6.286;2023-07-13T08:59:47;99850.19;;;32.12
15144;BMP180;7672;50.834;6.286;2023-07-13T09:02:26;99840.03;;;32.30
15144;BMP180;7672;50.834;6.286;2023-07-13T09:05:00;99842.75;;;32.49
15144;BMP180;7672;50.834;6.286;2023-07-13T09:10:49;99845.25;;;33.80
15144;BMP180;7672;50.834;6.286;2023-07-13T09:14:30;99835.72;;;34.83
15144;BMP180;7672;50.834;6.286;2023-07-13T09:16:29;99836.53;;;35.65
15144;BMP180;7672;50.834;6.286;2023-07-13T09:19:03;99845.41;;;36.43
15144;BMP180;7672;50.834;6.286;2023-07-13T09:21:41;99837.31;;;37.12
15144;BMP180;7672;50.834;6.286;2023-07-13T09:24:45;99835.00;;;37.17
15144;BMP180;7672;50.834;6.286;2023-07-13T09:27:21;99847.16;;;37.03
15144;BMP180;7672;50.834;6.286;2023-07-13T09:30:02;99834.47;;;36.81
15144;BMP180;7672;50.834;6.286;2023-07-13T09:32:35;99831.78;;;36.73
15144;BMP180;7672;50.834;6.286;2023-07-13T09:35:12;99833.97;;;37.36
15144;BMP180;7672;50.834;6.286;2023-07-13T09:37:39;99833.31;;;37.75
15144;BMP180;7672;50.834;6.286;2023-07-13T09:40:40;99830.69;;;37.83
15144;BMP180;7672;50.834;6.286;2023-07-13T09:43:15;99834.38;;;37.57
15144;BMP180;7672;50.834;6.286;2023-07-13T09:45:46;99835.72;;;37.61
15144;BMP180;7672;50.834;6.286;2023-07-13T09:48:17;99834.66;;;37.38
15144;BMP180;7672;50.834;6.286;2023-07-13T09:50:45;99842.09;;;37.17
15144;BMP180;7672;50.834;6.286;2023-07-13T09:53:16;99840.97;;;37.19
15144;BMP180;7672;50.834;6.286;2023-07-13T09:55:47;99844.19;;;37.31
15144;BMP180;7672;50.834;6.286;2023-07-13T09:58:27;99831.50;;;37.26
15144;BMP180;7672;50.834;6.286;2023-07-13T10:01:00;99847.16;;;37.03
15144;BMP180;7672;50.834;6.286;2023-07-13T10:03:35;99845.75;;;36.91
15144;BMP180;7672;50.834;6.286;2023-07-13T10:06:21;99858.13;;;36.73
15144;BMP180;7672;50.834;6.286;2023-07-13T10:08:52;99858.63;;;36.51
15144;BMP180;7672;50.834;6.286;2023-07-13T10:11:23;99854.56;;;36.39
15144;BMP180;7672;50.834;6.286;2023-07-13T10:13:59;99856.81;;;36.34
15144;BMP180;7672;50.834;6.286;2023-07-13T10:16:30;99854.13;;;36.86
15144;BMP180;7672;50.834;6.286;2023-07-13T10:19:05;99853.91;;;37.72
15144;BMP180;7672;50.834;6.286;2023-07-13T10:21:44;99864.59;;;38.59
15144;BMP180;7672;50.834;6.286;2023-07-13T10:24:22;99866.41;;;38.82
15144;BMP180;7672;50.834;6.286;2023-07-13T10:27:17;99872.34;;;38.52
15144;BMP180;7672;50.834;6.286;2023-07-13T10:29:53;99873.28;;;38.04
15144;BMP180;7672;50.834;6.286;2023-07-13T10:32:24;99866.00;;;37.49
15144;BMP180;7672;50.834;6.286;2023-07-13T10:34:51;99884.66;;;36.97
15144;BMP180;7672;50.834;6.286;2023-07-13T10:37:26;99861.47;;;36.40
15144;BMP180;7672;50.834;6.286;2023-07-13T10:39:57;99871.81;;;35.89
15144;BMP180;7672;50.834;6.286;2023-07-13T10:42:40;99875.78;;;35.40
15144;BMP180;7672;50.834;6.286;2023-07-13T10:45:19;99882.00;;;34.93
15144;BMP180;7672;50.834;6.286;2023-07-13T10:47:48;99884.28;;;34.51
15144;BMP180;7672;50.834;6.286;2023-07-13T10:50:22;99886.47;;;34.17
15144;BMP180;7672;50.834;6.286;2023-07-13T10:52:53;99887.06;;;33.91
15144;BMP180;7672;50.834;6.286;2023-07-13T10:55:55;99887.44;;;33.68
15144;BMP180;7672;50.834;6.286;2023-07-13T10:58:33;99890.66;;;33.51
15144;BMP180;7672;50.834;6.286;2023-07-13T11:01:15;99889.03;;;33.29
15144;BMP180;7672;50.834;6.286;2023-07-13T11:04:00;99889.94;;;33.10
15144;BMP180;7672;50.834;6.286;2023-07-13T11:06:42;99896.78;;;32.90
15144;BMP180;7672;50.834;6.286;2023-07-13T11:11:59;99890.13;;;32.57
15144;BMP180;7672;50.834;6.286;2023-07-13T11:14:43;99892.59;;;32.47
15144;BMP180;7672;50.834;6.286;2023-07-13T11:25:34;99893.31;;;33.30
15144;BMP180;7672;50.834;6.286;2023-07-13T11:30:40;99891.97;;;33.06
15144;BMP180;7672;50.834;6.286;2023-07-13T11:38:36;99896.81;;;32.39
15144;BMP180;7672;50.834;6.286;2023-07-13T11:41:21;99905.47;;;32.08
15144;BMP180;7672;50.834;6.286;2023-07-13T11:43:51;99890.28;;;31.80
15144;BMP180;7672;50.834;6.286;2023-07-13T11:46:27;99889.72;;;31.55
15144;BMP180;7672;50.834;6.286;2023-07-13T11:48:55;99882.97;;;31.41
15144;BMP180;7672;50.834;6.286;2023-07-13T11:51:29;99884.50;;;31.33
15144;BMP180;7672;50.834;6.286;2023-07-13T11:54:10;99886.63;;;31.28
15144;BMP180;7672;50.834;6.286;2023-07-13T11:56:40;99881.41;;;31.28
15144;BMP180;7672;50.834;6.286;2023-07-13T11:59:11;99877.47;;;31.33
15144;BMP180;7672;50.834;6.286;2023-07-13T12:01:51;99878.06;;;31.37
15144;BMP180;7672;50.834;6.286;2023-07-13T12:04:32;99895.53;;;31.47
15144;BMP180;7672;50.834;6.286;2023-07-13T12:07:31;99884.75;;;31.52
15144;BMP180;7672;50.834;6.286;2023-07-13T12:10:23;99875.38;;;31.60
15144;BMP180;7672;50.834;6.286;2023-07-13T12:13:11;99878.09;;;31.70
15144;BMP180;7672;50.834;6.286;2023-07-13T12:15:46;99874.47;;;31.82
15144;BMP180;7672;50.834;6.286;2023-07-13T12:18:20;99873.78;;;31.91
15144;BMP180;7672;50.834;6.286;2023-07-13T12:20:50;99871.00;;;32.03
15144;BMP180;7672;50.834;6.286;2023-07-13T12:23:33;99874.88;;;32.19
15144;BMP180;7672;50.834;6.286;2023-07-13T12:26:04;99869.34;;;32.33
15144;BMP180;7672;50.834;6.286;2023-07-13T12:28:45;99873.22;;;32.50
15144;BMP180;7672;50.834;6.286;2023-07-13T12:31:44;99868.53;;;32.64
15144;BMP180;7672;50.834;6.286;2023-07-13T12:34:15;99881.41;;;32.76
15144;BMP180;7672;50.834;6.286;2023-07-13T12:36:53;99867.69;;;32.84
15144;BMP180;7672;50.834;6.286;2023-07-13T12:39:26;99866.91;;;32.93
15144;BMP180;7672;50.834;6.286;2023-07-13T12:45:05;99872.03;;;33.15
15144;BMP180;7672;50.834;6.286;2023-07-13T12:47:47;99882.81;;;33.21
15144;BMP180;7672;50.834;6.286;2023-07-13T12:50:19;99878.56;;;33.29
15144;BMP180;7672;50.834;6.286;2023-07-13T12:53:01;99881.38;;;33.37
15144;BMP180;7672;50.834;6.286;2023-07-13T12:55:30;99881.69;;;33.44
15144;BMP180;7672;50.834;6.286;2023-07-13T12:58:03;99877.00;;;33.47
15144;BMP180;7672;50.834;6.286;2023-07-13T13:00:36;99879.88;;;33.44
15144;BMP180;7672;50.834;6.286;2023-07-13T13:03:20;99876.72;;;33.41
15144;BMP180;7672;50.834;6.286;2023-07-13T13:06:26;99877.09;;;33.36
15144;BMP180;7672;50.834;6.286;2023-07-13T13:08:56;99882.19;;;33.38
15144;BMP180;7672;50.834;6.286;2023-07-13T13:11:28;99880.53;;;33.37
15144;BMP180;7672;50.834;6.286;2023-07-13T13:13:55;99875.44;;;33.35
15144;BMP180;7672;50.834;6.286;2023-07-13T13:18:56;99880.66;;;33.35
15144;BMP180;7672;50.834;6.286;2023-07-13T13:21:25;99884.94;;;33.36
15144;BMP180;7672;50.834;6.286;2023-07-13T13:23:53;99880.94;;;33.32
15144;BMP180;7672;50.834;6.286;2023-07-13T13:26:22;99877.75;;;33.29
15144;BMP180;7672;50.834;6.286;2023-07-13T13:28:49;99877.88;;;33.27
15144;BMP180;7672;50.834;6.286;2023-07-13T13:31:16;99872.22;;;33.22
15144;BMP180;7672;50.834;6.286;2023-07-13T13:33:45;99872.72;;;33.17
15144;BMP180;7672;50.834;6.286;2023-07-13T13:36:19;99866.50;;;33.08
15144;BMP180;7672;50.834;6.286;2023-07-13T13:38:48;99867.00;;;33.02
15144;BMP180;7672;50.834;6.286;2023-07-13T13:41:17;99867.34;;;32.98
15144;BMP180;7672;50.834;6.286;2023-07-13T13:43:44;99862.66;;;32.92
15144;BMP180;7672;50.834;6.286;2023-07-13T13:46:24;99866.28;;;32.80
15144;BMP180;7672;50.834;6.286;2023-07-13T13:48:57;99858.25;;;32.72
15144;BMP180;7672;50.834;6.286;2023-07-13T13:51:24;99862.09;;;32.68
15144;BMP180;7672;50.834;6.286;2023-07-13T13:53:52;99859.22;;;32.71
15144;BMP180;7672;50.834;6.286;2023-07-13T13:56:20;99863.50;;;32.72
15144;BMP180;7672;50.834;6.286;2023-07-13T13:58:48;99861.81;;;32.71
15144;BMP180;7672;50.834;6.286;2023-07-13T14:01:21;99859.91;;;32.73
15144;BMP180;7672;50.834;6.286;2023-07-13T14:03:50;99865.84;;;32.75
15144;BMP180;7672;50.834;6.286;2023-07-13T14:06:20;99858.97;;;32.74
15144;BMP180;7672;50.834;6.286;2023-07-13T14:08:47;99856.44;;;32.72
15144;BMP180;7672;50.834;6.286;2023-07-13T14:11:19;99865.16;;;32.73
15144;BMP180;7672;50.834;6.286;2023-07-13T14:13:58;99873.00;;;32.73
15144;BMP180;7672;50.834;6.286;2023-07-13T14:16:29;99868.16;;;32.68
15144;BMP180;7672;50.834;6.286;2023-07-13T14:18:58;99865.78;;;32.65
15144;BMP180;7672;50.834;6.286;2023-07-13T14:21:29;99866.88;;;32.63
15144;BMP180;7672;50.834;6.286;2023-07-13T14:23:56;99866.44;;;32.58
15144;BMP180;7672;50.834;6.286;2023-07-13T14:26:26;99865.97;;;32.53
15144;BMP180;7672;50.834;6.286;2023-07-13T14:28:56;99867.28;;;32.48
15144;BMP180;7672;50.834;6.286;2023-07-13T14:31:26;99856.94;;;32.46
15144;BMP180;7672;50.834;6.286;2023-07-13T14:33:57;99867.78;;;32.42
15144;BMP180;7672;50.834;6.286;2023-07-13T14:36:36;99864.13;;;32.33
15144;BMP180;7672;50.834;6.286;2023-07-13T14:39:33;99870.38;;;32.21
15144;BMP180;7672;50.834;6.286;2023-07-13T14:42:00;99876.22;;;32.14
15144;BMP180;7672;50.834;6.286;2023-07-13T14:44:30;99872.69;;;32.04
15144;BMP180;7672;50.834;6.286;2023-07-13T14:46:59;99869.25;;;31.92
15144;BMP180;7672;50.834;6.286;2023-07-13T14:49:34;99875.81;;;31.87
15144;BMP180;7672;50.834;6.286;2023-07-13T14:52:14;99873.06;;;31.78
15144;BMP180;7672;50.834;6.286;2023-07-13T14:54:43;99866.09;;;31.67
15144;BMP180;7672;50.834;6.286;2023-07-13T14:57:17;99866.22;;;31.55
15144;BMP180;7672;50.834;6.286;2023-07-13T14:59:47;99879.50;;;31.41
15144;BMP180;7672;50.834;6.286;2023-07-13T15:02:38;99885.47;;;31.21
15144;BMP180;7672;50.834;6.286;2023-07-13T15:05:18;99886.84;;;31.03
15144;BMP180;7672;50.834;6.286;2023-07-13T15:07:46;99887.38;;;30.85
15144;BMP180;7672;50.834;6.286;2023-07-13T15:10:22;99889.69;;;30.66
15144;BMP180;7672;50.834;6.286;2023-07-13T15:12:52;99883.25;;;30.48
15144;BMP180;7672;50.834;6.286;2023-07-13T15:15:20;99888.72;;;30.33
15144;BMP180;7672;50.834;6.286;2023-07-13T15:17:48;99892.56;;;30.16